Time;durP1;ratioP1;P1;durP2;ratioP2;P2;SDS_P1;SDS_P2;PMS_P1;PMS_P2;Temp;Humidity;BMP_temperature;BMP_pressure;BME280_temperature;BME280_humidity;BME280_pressure;Samples;Min_cycle;Max_cycle;Signal;HPM_P1;HPM_P2
2023/07/02 00:01:03;;;;;;;;;;;;;;;16.05;56.68;100084.75;5075646;28;1097;-57
2023/07/02 00:03:28;;;;;;;;;;;;;;;16.04;56.84;100085.84;5075357;28;1020;-57
2023/07/02 00:05:54;;;;;;;;;;;;;;;16.07;57.14;100080.59;5075450;28;1121;-57
2023/07/02 00:08:22;;;;;;;;;;;;;;;16.08;57.00;100071.25;5075241;28;881;-57
2023/07/02 00:10:47;;;;;;;;;;;;;;;16.04;56.98;100070.19;5075588;28;1979;-57
2023/07/02 00:13:14;;;;;;;;;;;;;;;16.02;56.66;100068.84;5076987;28;1101;-55
2023/07/02 00:15:39;;;;;;;;;;;;;;;16.00;56.49;100066.38;5079265;28;1196;-57
2023/07/02 00:18:05;;;;;;;;;;;;;;;16.00;56.55;100066.38;5078769;28;1158;-57
2023/07/02 00:20:34;;;;;;;;;;;;;;;15.93;56.41;100054.13;5078401;28;900;-55
2023/07/02 00:23:00;;;;;;;;;;;;;;;15.86;56.10;100065.41;5078807;28;1161;-55
2023/07/02 00:25:26;;;;;;;;;;;;;;;15.81;56.08;100058.06;5079003;28;1007;-53
2023/07/02 00:27:51;;;;;;;;;;;;;;;15.80;56.05;100058.34;5078885;28;1047;-51
2023/07/02 00:30:17;;;;;;;;;;;;;;;16.18;56.84;100055.81;5060642;28;1909;-54
2023/07/02 00:32:43;;;;;;;;;;;;;;;17.40;57.75;100050.06;5078411;28;859;-55
2023/07/02 00:35:10;;;;;;;;;;;;;;;16.75;58.55;100045.91;5060762;28;1292;-51
2023/07/02 00:37:36;;;;;;;;;;;;;;;16.50;57.89;100041.50;5078794;28;1015;-51
2023/07/02 00:40:02;;;;;;;;;;;;;;;16.36;57.67;100057.84;5078512;28;1102;-53
2023/07/02 00:42:29;;;;;;;;;;;;;;;16.29;56.97;100042.84;5079090;28;1361;-55
2023/07/02 00:44:56;;;;;;;;;;;;;;;16.22;56.65;100045.91;5070811;28;968;-53
2023/07/02 00:47:22;;;;;;;;;;;;;;;16.15;56.60;100046.25;5060153;28;1163;-53
2023/07/02 00:49:48;;;;;;;;;;;;;;;16.10;56.35;100048.22;5060648;28;1910;-55
2023/07/02 00:52:13;;;;;;;;;;;;;;;16.04;56.52;100040.03;5078321;28;1007;-54
2023/07/02 00:54:40;;;;;;;;;;;;;;;15.98;56.52;100035.69;5078394;28;1078;-56
2023/07/02 00:57:06;;;;;;;;;;;;;;;15.99;56.23;100034.59;5078244;28;1217;-56
2023/07/02 00:59:33;;;;;;;;;;;;;;;15.92;56.14;100031.34;5060584;28;1427;-53
2023/07/02 01:01:59;;;;;;;;;;;;;;;15.90;56.05;100030.84;5078103;28;1159;-55
2023/07/02 01:04:27;;;;;;;;;;;;;;;15.79;55.84;100023.78;5078417;28;1098;-56
2023/07/02 01:06:57;;;;;;;;;;;;;;;15.86;56.03;100027.03;5076326;28;1062;-56
2023/07/02 01:09:25;;;;;;;;;;;;;;;16.28;56.93;100039.25;5070514;28;1970;-54
2023/07/02 01:11:52;;;;;;;;;;;;;;;17.50;57.32;100023.50;5078018;28;1079;-57
2023/07/02 01:14:24;;;;;;;;;;;;;;;16.79;57.85;100021.44;5060229;28;1238;-55
2023/07/02 01:16:51;;;;;;;;;;;;;;;16.54;57.58;100019.81;5077918;28;980;-55
2023/07/02 01:19:18;;;;;;;;;;;;;;;16.40;57.22;100023.22;5059785;28;1177;-55
2023/07/02 01:21:44;;;;;;;;;;;;;;;16.34;56.96;100018.06;5059813;28;1131;-54
2023/07/02 01:24:10;;;;;;;;;;;;;;;16.22;56.69;100021.22;5077854;28;1209;-54
2023/07/02 01:26:37;;;;;;;;;;;;;;;16.21;56.54;100006.69;5077869;28;1054;-52
2023/07/02 01:29:18;;;;;;;;;;;;;;;16.12;56.50;100008.44;5077591;28;1878;-53
2023/07/02 01:31:44;;;;;;;;;;;;;;;16.07;56.48;100014.78;5077329;28;1131;-48
2023/07/02 01:34:10;;;;;;;;;;;;;;;16.00;56.28;100017.03;5060011;28;1154;-52
2023/07/02 01:36:36;;;;;;;;;;;;;;;15.98;56.19;100008.28;5077843;28;1035;-50
2023/07/02 01:39:02;;;;;;;;;;;;;;;15.98;55.78;100007.47;5077382;28;1019;-54
2023/07/02 01:41:27;;;;;;;;;;;;;;;15.96;56.07;100013.22;5077852;28;1139;-56
2023/07/02 01:43:53;;;;;;;;;;;;;;;15.90;55.77;100008.91;5058945;28;1082;-57
2023/07/02 01:46:18;;;;;;;;;;;;;;;15.86;56.05;100013.31;5077470;28;1119;-56
2023/07/02 01:48:44;;;;;;;;;;;;;;;15.85;55.80;100025.38;5059008;28;1968;-56
2023/07/02 01:51:10;;;;;;;;;;;;;;;15.87;55.98;100026.75;5077464;28;1103;-57
2023/07/02 01:53:35;;;;;;;;;;;;;;;15.82;55.72;100015.00;5077291;28;1071;-58
2023/07/02 01:56:01;;;;;;;;;;;;;;;15.83;56.00;100011.97;5077202;28;1054;-54
2023/07/02 01:58:27;;;;;;;;;;;;;;;17.14;57.03;100011.13;5059173;28;1280;-56
2023/07/02 02:00:52;;;;;;;;;;;;;;;16.95;58.07;100013.84;5059447;28;1264;-56
2023/07/02 02:03:18;;;;;;;;;;;;;;;16.52;57.86;100000.03;5077004;28;1161;-58
2023/07/02 02:05:43;;;;;;;;;;;;;;;16.38;57.49;99998.03;5076972;28;1432;-57
2023/07/02 02:08:08;;;;;;;;;;;;;;;16.30;56.80;100000.56;5076638;28;1083;-57
2023/07/02 02:10:34;;;;;;;;;;;;;;;16.20;56.47;99993.25;5076597;28;1960;-56
2023/07/02 02:13:00;;;;;;;;;;;;;;;16.13;56.45;99992.78;5059040;28;1158;-57
2023/07/02 02:15:25;;;;;;;;;;;;;;;16.07;56.21;100001.06;5077068;28;1123;-57
2023/07/02 02:17:51;;;;;;;;;;;;;;;16.11;55.77;100000.50;5076561;28;1054;-57
2023/07/02 02:20:16;;;;;;;;;;;;;;;16.02;55.89;99997.53;5076425;28;1150;-55
2023/07/02 02:22:42;;;;;;;;;;;;;;;15.94;55.98;100001.75;5076570;28;1213;-55
2023/07/02 02:25:08;;;;;;;;;;;;;;;15.92;55.98;100001.19;5076827;28;1027;-57
2023/07/02 02:27:33;;;;;;;;;;;;;;;15.91;55.79;99999.56;5076412;28;1181;-52
2023/07/02 02:29:59;;;;;;;;;;;;;;;15.91;55.59;100005.06;5076556;28;1976;-57
2023/07/02 02:32:25;;;;;;;;;;;;;;;15.91;56.00;100008.59;5076495;28;1245;-55
2023/07/02 02:34:51;;;;;;;;;;;;;;;17.22;56.94;100004.97;5058816;28;1340;-57
2023/07/02 02:37:18;;;;;;;;;;;;;;;16.70;57.84;100010.25;5076188;28;1119;-57
2023/07/02 02:39:43;;;;;;;;;;;;;;;16.43;57.41;99997.94;5076327;28;1184;-55
2023/07/02 02:42:09;;;;;;;;;;;;;;;16.29;57.12;100004.44;5076622;28;1137;-56
2023/07/02 02:44:34;;;;;;;;;;;;;;;16.28;56.36;100003.59;5058350;28;1095;-57
2023/07/02 02:47:00;;;;;;;;;;;;;;;16.15;56.22;100009.78;5058511;28;1166;-57
2023/07/02 02:49:25;;;;;;;;;;;;;;;16.09;56.18;100011.75;5075953;28;1988;-56
2023/07/02 02:51:51;;;;;;;;;;;;;;;16.05;56.00;100013.44;5076439;28;1129;-57
2023/07/02 02:54:16;;;;;;;;;;;;;;;15.99;56.04;100004.44;5076526;28;1117;-57
2023/07/02 02:56:42;;;;;;;;;;;;;;;15.93;55.80;100002.03;5058127;28;1150;-56
2023/07/02 02:59:07;;;;;;;;;;;;;;;15.94;55.76;99996.25;5058402;28;1322;-57
2023/07/02 03:01:33;;;;;;;;;;;;;;;15.88;55.79;99991.94;5058137;28;1309;-57
2023/07/02 03:03:59;;;;;;;;;;;;;;;15.81;55.76;100000.47;5058478;28;1119;-57
2023/07/02 03:06:24;;;;;;;;;;;;;;;15.79;55.81;100004.59;5076332;28;1051;-57
2023/07/02 03:08:50;;;;;;;;;;;;;;;17.03;57.09;100012.38;5073726;28;1910;-57
2023/07/02 03:11:15;;;;;;;;;;;;;;;17.05;57.51;100005.44;5076235;28;1131;-57
2023/07/02 03:13:41;;;;;;;;;;;;;;;16.58;57.61;100009.88;5058215;28;1264;-57
2023/07/02 03:16:07;;;;;;;;;;;;;;;16.37;57.35;100004.59;5058292;28;1353;-57
2023/07/02 03:18:32;;;;;;;;;;;;;;;16.31;56.76;99996.72;5075900;28;1121;-57
2023/07/02 03:20:58;;;;;;;;;;;;;;;16.23;56.82;100004.47;5075244;28;1046;-57
2023/07/02 03:23:24;;;;;;;;;;;;;;;16.20;56.37;100020.69;5076350;28;1026;-57
2023/07/02 03:25:50;;;;;;;;;;;;;;;16.14;56.19;100021.84;5075904;28;1000;-57
2023/07/02 03:28:15;;;;;;;;;;;;;;;16.08;56.13;100018.34;5076088;28;1094;-57
2023/07/02 03:30:41;;;;;;;;;;;;;;;16.06;56.24;100021.38;5057898;28;1910;-57
2023/07/02 03:33:07;;;;;;;;;;;;;;;16.02;56.23;100023.06;5076059;28;944;-58
2023/07/02 03:35:33;;;;;;;;;;;;;;;16.03;55.98;100032.94;5064069;28;1157;-55
2023/07/02 03:37:58;;;;;;;;;;;;;;;16.01;55.69;100026.09;5074304;28;1091;-54
2023/07/02 03:40:24;;;;;;;;;;;;;;;15.98;55.96;100029.41;5075784;28;1671;-55
2023/07/02 03:42:49;;;;;;;;;;;;;;;15.96;56.26;100031.59;5076072;28;1039;-51
2023/07/02 03:45:15;;;;;;;;;;;;;;;15.91;56.19;100035.22;5075859;28;852;-54
2023/07/02 03:47:40;;;;;;;;;;;;;;;15.90;56.04;100025.34;5076510;28;1175;-59
2023/07/02 03:50:06;;;;;;;;;;;;;;;15.89;55.97;100037.41;5079429;28;1909;-59
2023/07/02 03:52:32;;;;;;;;;;;;;;;15.87;55.89;100028.66;5079564;28;1038;-59
2023/07/02 03:54:57;;;;;;;;;;;;;;;15.86;55.90;100029.78;5080041;28;1090;-60
2023/07/02 03:57:23;;;;;;;;;;;;;;;15.84;55.97;100029.25;5079294;28;1059;-61
2023/07/02 03:59:48;;;;;;;;;;;;;;;17.13;56.72;100033.41;5079887;28;1138;-60
2023/07/02 04:02:14;;;;;;;;;;;;;;;16.82;57.68;100031.81;5079571;28;1186;-59
2023/07/02 04:04:39;;;;;;;;;;;;;;;16.50;57.65;100033.28;5078949;28;1046;-57
2023/07/02 04:07:05;;;;;;;;;;;;;;;16.34;57.48;100027.16;5079326;28;1154;-55
2023/07/02 04:09:32;;;;;;;;;;;;;;;16.25;57.17;100031.63;5078598;28;1922;-55
2023/07/02 04:11:58;;;;;;;;;;;;;;;16.20;56.69;100037.13;5066113;28;1024;-54
2023/07/02 04:14:24;;;;;;;;;;;;;;;16.12;56.90;100030.38;5079097;28;1054;-56
2023/07/02 04:16:49;;;;;;;;;;;;;;;16.12;56.51;100035.03;5079425;28;1095;-53
2023/07/02 04:19:15;;;;;;;;;;;;;;;16.07;56.55;100034.00;5079212;28;1086;-56
2023/07/02 04:21:40;;;;;;;;;;;;;;;16.03;56.44;100027.44;5078564;28;917;-56
2023/07/02 04:24:06;;;;;;;;;;;;;;;16.01;56.18;100029.63;5078951;28;1130;-55
2023/07/02 04:26:31;;;;;;;;;;;;;;;15.99;56.11;100031.88;5066364;28;1054;-55
2023/07/02 04:28:57;;;;;;;;;;;;;;;15.99;56.25;100033.78;5078935;28;1980;-53
2023/07/02 04:31:22;;;;;;;;;;;;;;;15.94;56.05;100034.63;5078549;28;1031;-53
2023/07/02 04:33:48;;;;;;;;;;;;;;;15.91;56.32;100027.81;5078326;28;1027;-56
2023/07/02 04:36:14;;;;;;;;;;;;;;;15.92;56.08;100034.09;5065480;28;1019;-57
2023/07/02 04:38:39;;;;;;;;;;;;;;;15.90;55.97;100030.84;5078679;28;1103;-56
2023/07/02 04:41:05;;;;;;;;;;;;;;;15.85;56.02;100037.19;5078467;28;1221;-56
2023/07/02 04:43:33;;;;;;;;;;;;;;;15.87;56.08;100039.63;5078603;28;1051;-57
2023/07/02 04:45:59;;;;;;;;;;;;;;;15.82;56.16;100043.25;5071800;28;873;-56
2023/07/02 04:48:24;;;;;;;;;;;;;;;15.79;56.11;100045.69;5078681;28;1189;-54
2023/07/02 04:50:50;;;;;;;;;;;;;;;15.80;55.90;100041.91;5078243;28;1910;-56
2023/07/02 04:53:15;;;;;;;;;;;;;;;16.25;57.43;100046.13;5078248;28;1082;-56
2023/07/02 04:55:41;;;;;;;;;;;;;;;17.01;55.50;100053.88;5078000;28;1050;-57
2023/07/02 04:58:06;;;;;;;;;;;;;;;16.28;54.83;100052.97;5077604;28;964;-57
2023/07/02 05:00:32;;;;;;;;;;;;;;;16.04;53.63;100053.72;5078356;28;1011;-56
2023/07/02 05:02:57;;;;;;;;;;;;;;;16.02;52.19;100045.00;5078518;28;1099;-57
2023/07/02 05:05:23;;;;;;;;;;;;;;;17.24;55.02;100046.69;5078000;28;1028;-57
2023/07/02 05:07:48;;;;;;;;;;;;;;;16.58;54.61;100053.78;5078219;28;1171;-57
2023/07/02 05:10:14;;;;;;;;;;;;;;;16.34;53.10;100059.22;5077679;28;1983;-57
2023/07/02 05:12:40;;;;;;;;;;;;;;;16.96;53.71;100059.41;5077901;28;1038;-57
2023/07/02 05:15:05;;;;;;;;;;;;;;;16.89;53.42;100054.28;5077858;28;1062;-57
2023/07/02 05:17:34;;;;;;;;;;;;;;;16.55;52.51;100048.84;5077728;28;1102;-57
2023/07/02 05:20:00;;;;;;;;;;;;;;;16.45;51.30;100046.22;5078099;28;1099;-57
2023/07/02 05:22:25;;;;;;;;;;;;;;;16.41;50.45;100049.56;5078263;28;928;-57
2023/07/02 05:24:51;;;;;;;;;;;;;;;16.29;50.22;100045.59;5076972;28;1194;-57
2023/07/02 05:27:16;;;;;;;;;;;;;;;16.23;49.75;100047.56;5078149;28;1106;-57
2023/07/02 05:29:42;;;;;;;;;;;;;;;16.27;49.49;100058.75;5077530;28;1902;-58
2023/07/02 05:32:08;;;;;;;;;;;;;;;17.64;51.92;100064.81;5078161;28;1163;-56
2023/07/02 05:34:33;;;;;;;;;;;;;;;16.87;52.11;100061.97;5077365;28;1210;-56
2023/07/02 05:36:59;;;;;;;;;;;;;;;16.60;51.33;100076.25;5077555;28;1061;-56
2023/07/02 05:39:24;;;;;;;;;;;;;;;16.65;50.23;100073.47;5077845;28;1085;-56
2023/07/02 05:41:50;;;;;;;;;;;;;;;16.58;49.23;100071.06;5077812;28;1125;-56
2023/07/02 05:44:15;;;;;;;;;;;;;;;16.53;48.96;100062.06;5077091;28;1083;-56
2023/07/02 05:46:41;;;;;;;;;;;;;;;16.48;48.74;100071.19;5077112;28;956;-56
2023/07/02 05:49:06;;;;;;;;;;;;;;;16.37;48.63;100064.16;5077099;28;1906;-58
2023/07/02 05:51:32;;;;;;;;;;;;;;;16.44;48.39;100070.13;5077124;28;1023;-56
2023/07/02 05:53:57;;;;;;;;;;;;;;;16.40;48.03;100069.88;5077315;28;1127;-56
2023/07/02 05:56:23;;;;;;;;;;;;;;;16.38;48.23;100065.78;5077128;28;1123;-56
2023/07/02 05:58:48;;;;;;;;;;;;;;;16.75;49.10;100069.78;5076994;28;1036;-57
2023/07/02 06:01:14;;;;;;;;;;;;;;;17.18;50.77;100058.03;5077549;28;1094;-57
2023/07/02 06:03:39;;;;;;;;;;;;;;;16.83;50.39;100060.09;5076886;28;1150;-53
2023/07/02 06:06:05;;;;;;;;;;;;;;;16.77;49.53;100057.41;5076976;28;1199;-55
2023/07/02 06:08:30;;;;;;;;;;;;;;;16.61;48.97;100050.47;5076530;28;1138;-56
2023/07/02 06:10:56;;;;;;;;;;;;;;;16.66;48.34;100044.91;5075635;28;1983;-54
2023/07/02 06:13:21;;;;;;;;;;;;;;;16.98;49.22;100042.63;5077183;28;1065;-54
2023/07/02 06:15:47;;;;;;;;;;;;;;;17.14;50.47;100046.00;5077090;28;1129;-54
2023/07/02 06:18:13;;;;;;;;;;;;;;;16.94;49.76;100045.16;5076732;28;1391;-56
2023/07/02 06:20:38;;;;;;;;;;;;;;;16.85;49.19;100042.22;5076897;28;1122;-53
2023/07/02 06:23:04;;;;;;;;;;;;;;;16.73;48.83;100047.28;5076217;28;1171;-52
2023/07/02 06:25:29;;;;;;;;;;;;;;;16.79;48.40;100042.56;5076576;28;1054;-56
2023/07/02 06:27:58;;;;;;;;;;;;;;;16.79;47.79;100042.56;5076006;28;1146;-57
2023/07/02 06:30:23;;;;;;;;;;;;;;;16.74;47.72;100047.00;5076667;28;1988;-57
2023/07/02 06:32:49;;;;;;;;;;;;;;;16.93;48.48;100038.84;5059345;28;1162;-56
2023/07/02 06:35:14;;;;;;;;;;;;;;;17.27;49.88;100043.34;5076295;28;936;-57
2023/07/02 06:37:40;;;;;;;;;;;;;;;17.04;49.49;100047.78;5076392;28;1082;-57
2023/07/02 06:40:06;;;;;;;;;;;;;;;16.93;48.72;100047.09;5076349;28;1107;-55
2023/07/02 06:42:32;;;;;;;;;;;;;;;16.85;48.39;100047.69;5076743;28;1217;-56
2023/07/02 06:44:58;;;;;;;;;;;;;;;16.82;48.18;100042.00;5076337;28;1078;-56
2023/07/02 06:47:23;;;;;;;;;;;;;;;16.67;47.99;100048.47;5075633;28;1294;-57
2023/07/02 06:49:51;;;;;;;;;;;;;;;16.69;47.66;100047.06;5076574;28;1905;-56
2023/07/02 06:52:16;;;;;;;;;;;;;;;16.67;47.27;100046.53;5076267;28;1526;-57
2023/07/02 06:54:42;;;;;;;;;;;;;;;16.62;47.68;100046.63;5076558;28;1151;-53
2023/07/02 06:57:07;;;;;;;;;;;;;;;16.76;46.96;100046.72;5076310;28;1154;-53
2023/07/02 06:59:33;;;;;;;;;;;;;;;16.59;47.25;100045.25;5076325;28;912;-54
2023/07/02 07:01:58;;;;;;;;;;;;;;;16.66;47.23;100049.56;5076020;28;1121;-54
2023/07/02 07:04:24;;;;;;;;;;;;;;;16.69;47.06;100044.34;5076049;28;1026;-55
2023/07/02 07:06:50;;;;;;;;;;;;;;;17.36;48.63;100046.25;5071476;28;1023;-54
2023/07/02 07:09:15;;;;;;;;;;;;;;;16.92;48.96;100047.38;5066851;28;1985;-55
2023/07/02 07:11:41;;;;;;;;;;;;;;;16.82;48.36;100052.97;5075841;28;965;-55
2023/07/02 07:14:06;;;;;;;;;;;;;;;16.75;48.17;100048.63;5076655;28;1083;-53
2023/07/02 07:16:32;;;;;;;;;;;;;;;16.83;47.60;100046.34;5075922;28;1142;-52
2023/07/02 07:18:57;;;;;;;;;;;;;;;16.76;47.61;100046.72;5075919;28;1067;-52
2023/07/02 07:21:23;;;;;;;;;;;;;;;16.73;47.55;100045.38;5075930;28;1094;-50
2023/07/02 07:23:49;;;;;;;;;;;;;;;16.75;47.35;100040.41;5079902;28;903;-53
2023/07/02 07:26:14;;;;;;;;;;;;;;;16.70;47.31;100043.19;5080332;28;1119;-50
2023/07/02 07:28:40;;;;;;;;;;;;;;;16.70;47.21;100040.44;5079496;28;1050;-50
2023/07/02 07:31:05;;;;;;;;;;;;;;;16.66;47.02;100039.44;5079865;28;1974;-51
2023/07/02 07:33:31;;;;;;;;;;;;;;;16.73;46.97;100039.88;5080118;28;1113;-54
2023/07/02 07:35:56;;;;;;;;;;;;;;;16.58;46.99;100032.63;5079701;28;944;-50
2023/07/02 07:38:22;;;;;;;;;;;;;;;16.60;46.98;100037.84;5080069;28;1016;-50
2023/07/02 07:40:47;;;;;;;;;;;;;;;16.67;46.91;100027.31;5079352;28;1086;-49
2023/07/02 07:43:13;;;;;;;;;;;;;;;16.70;46.96;100028.66;5079721;28;1070;-50
2023/07/02 07:45:38;;;;;;;;;;;;;;;17.57;48.37;100029.44;5080036;28;1486;-50
2023/07/02 07:48:04;;;;;;;;;;;;;;;17.00;48.89;100030.25;5079108;28;1066;-49
2023/07/02 07:50:30;;;;;;;;;;;;;;;16.88;48.61;100024.34;5079202;28;1969;-48
2023/07/02 07:52:55;;;;;;;;;;;;;;;16.91;48.17;100024.59;5079697;28;1138;-51
2023/07/02 07:55:21;;;;;;;;;;;;;;;16.92;47.96;100023.47;5079234;28;1078;-47
2023/07/02 07:57:47;;;;;;;;;;;;;;;16.90;47.49;100022.97;5079789;28;1110;-49
2023/07/02 08:00:13;;;;;;;;;;;;;;;16.76;47.56;100033.00;5078874;28;916;-51
2023/07/02 08:02:47;;;;;;;;;;;;;;;16.81;47.61;100023.88;5079604;28;1150;-53
2023/07/02 08:05:13;;;;;;;;;;;;;;;16.73;47.56;100022.59;5079390;28;1100;-51
2023/07/02 08:07:39;;;;;;;;;;;;;;;16.81;47.45;100021.13;5079130;28;1229;-50
2023/07/02 08:10:04;;;;;;;;;;;;;;;16.79;47.38;100039.81;5078534;28;1914;-51
2023/07/02 08:12:30;;;;;;;;;;;;;;;16.83;47.28;100038.13;5079412;28;1213;-47
2023/07/02 08:14:56;;;;;;;;;;;;;;;16.80;47.34;100031.28;5079484;28;1245;-51
2023/07/02 08:17:21;;;;;;;;;;;;;;;16.73;47.45;100037.16;5079247;28;1022;-50
2023/07/02 08:19:46;;;;;;;;;;;;;;;16.83;47.28;100038.13;5079080;28;1083;-53
2023/07/02 08:22:12;;;;;;;;;;;;;;;16.82;46.95;100026.31;5078181;28;1074;-51
2023/07/02 08:24:38;;;;;;;;;;;;;;;16.72;47.57;100038.25;5078672;28;1042;-52
2023/07/02 08:27:03;;;;;;;;;;;;;;;16.82;47.18;100028.25;5079276;28;1214;-50
2023/07/02 08:29:29;;;;;;;;;;;;;;;16.80;47.47;100027.72;5072954;28;1905;-51
2023/07/02 08:31:55;;;;;;;;;;;;;;;16.76;47.36;100016.53;5058365;28;1371;-50
2023/07/02 08:34:21;;;;;;;;;;;;;;;16.80;47.33;100014.81;5077149;28;908;-49
2023/07/02 08:36:46;;;;;;;;;;;;;;;16.85;47.28;100014.75;5078593;28;1070;-50
2023/07/02 08:39:12;;;;;;;;;;;;;;;16.81;47.14;100015.63;5078496;28;1066;-48
2023/07/02 08:41:44;;;;;;;;;;;;;;;16.86;47.28;100023.81;5071900;28;1328;-55
2023/07/02 08:44:09;;;;;;;;;;;;;;;16.76;47.53;100025.56;5078451;28;1394;-52
2023/07/02 08:46:35;;;;;;;;;;;;;;;16.83;47.32;100032.63;5060406;28;1399;-54
2023/07/02 08:49:00;;;;;;;;;;;;;;;16.86;46.95;100034.81;5078276;28;1902;-56
2023/07/02 08:51:26;;;;;;;;;;;;;;;16.76;47.46;100031.06;5077869;28;1070;-52
2023/07/02 08:53:51;;;;;;;;;;;;;;;16.72;47.25;100031.94;5078858;28;1121;-50
2023/07/02 08:56:17;;;;;;;;;;;;;;;16.76;47.04;100025.56;5078754;28;1226;-55
2023/07/02 08:58:42;;;;;;;;;;;;;;;16.75;47.27;100026.69;5078427;28;1162;-54
2023/07/02 09:01:11;;;;;;;;;;;;;;;16.74;47.50;100032.47;5078285;28;988;-51
2023/07/02 09:03:37;;;;;;;;;;;;;;;16.85;47.24;100041.41;5078469;28;1162;-54
2023/07/02 09:06:03;;;;;;;;;;;;;;;16.70;47.32;100036.91;5078327;28;1157;-54
2023/07/02 09:08:29;;;;;;;;;;;;;;;16.84;47.02;100039.75;5077559;28;1150;-54
2023/07/02 09:10:54;;;;;;;;;;;;;;;16.78;46.99;100047.25;5077731;28;1913;-51
2023/07/02 09:13:20;;;;;;;;;;;;;;;16.70;47.25;100034.97;5077370;28;1362;-52
2023/07/02 09:15:45;;;;;;;;;;;;;;;16.91;47.72;100041.09;5078495;28;1119;-54
2023/07/02 09:18:17;;;;;;;;;;;;;;;17.40;48.96;100033.56;5078269;28;1067;-52
2023/07/02 09:20:43;;;;;;;;;;;;;;;17.15;48.97;100039.41;5078058;28;1151;-53
2023/07/02 09:23:08;;;;;;;;;;;;;;;17.11;48.37;100033.69;5077998;28;1193;-50
2023/07/02 09:25:36;;;;;;;;;;;;;;;17.02;48.07;100030.75;5060082;28;1019;-53
2023/07/02 09:28:01;;;;;;;;;;;;;;;16.98;47.86;100026.16;5078275;28;1103;-54
2023/07/02 09:30:27;;;;;;;;;;;;;;;17.04;47.68;100016.72;5077326;28;1976;-49
2023/07/02 09:32:54;;;;;;;;;;;;;;;17.02;47.38;100030.75;5059378;28;1146;-50
2023/07/02 09:35:19;;;;;;;;;;;;;;;17.03;47.26;100021.41;5077316;28;1142;-53
2023/07/02 09:37:46;;;;;;;;;;;;;;;16.94;47.25;100034.16;5077820;28;1145;-49
2023/07/02 09:40:11;;;;;;;;;;;;;;;16.92;47.18;100030.91;5077656;28;1145;-53
2023/07/02 09:42:37;;;;;;;;;;;;;;;16.98;47.27;100028.91;5060060;28;1187;-52
2023/07/02 09:45:03;;;;;;;;;;;;;;;16.91;47.28;100021.88;5077548;28;1166;-53
2023/07/02 09:47:29;;;;;;;;;;;;;;;16.98;47.23;100018.72;5057189;28;1092;-54
2023/07/02 09:49:55;;;;;;;;;;;;;;;16.93;47.40;100027.88;5077272;28;1921;-54
2023/07/02 09:52:21;;;;;;;;;;;;;;;16.94;47.31;100028.66;5059178;28;1007;-54
2023/07/02 09:54:46;;;;;;;;;;;;;;;16.96;47.31;100031.13;5077449;28;1065;-54
2023/07/02 09:57:12;;;;;;;;;;;;;;;16.89;47.38;100028.75;5077282;28;1074;-53
2023/07/02 09:59:37;;;;;;;;;;;;;;;16.90;47.14;100028.47;5077242;28;1106;-54
2023/07/02 10:02:03;;;;;;;;;;;;;;;16.82;47.32;100022.78;5077258;28;1094;-53
2023/07/02 10:04:38;;;;;;;;;;;;;;;16.90;47.26;100024.88;5077328;28;1186;-54
2023/07/02 10:07:04;;;;;;;;;;;;;;;16.88;47.47;100029.81;5077456;28;1135;-55
2023/07/02 10:09:39;;;;;;;;;;;;;;;16.96;47.03;100031.94;5077092;28;1968;-55
2023/07/02 10:12:24;;;;;;;;;;;;;;;16.92;47.07;100030.91;5076524;28;899;-55
2023/07/02 10:14:50;;;;;;;;;;;;;;;17.00;46.94;100034.91;5076855;28;1118;-56
2023/07/02 10:17:25;;;;;;;;;;;;;;;16.93;46.85;100027.06;5077122;28;1166;-55
2023/07/02 10:19:51;;;;;;;;;;;;;;;16.91;46.96;100021.88;5076876;28;1149;-56
2023/07/02 10:22:17;;;;;;;;;;;;;;;16.92;47.18;100017.97;5077046;28;1115;-56
2023/07/02 10:24:50;;;;;;;;;;;;;;;16.96;47.25;100020.13;5075976;28;1066;-56
2023/07/02 10:27:16;;;;;;;;;;;;;;;16.87;47.20;100008.97;5076596;28;1222;-56
2023/07/02 10:29:48;;;;;;;;;;;;;;;16.88;47.06;100007.84;5076702;28;1973;-56
2023/07/02 10:32:14;;;;;;;;;;;;;;;16.97;47.04;100011.63;5076354;28;1181;-55
2023/07/02 10:34:39;;;;;;;;;;;;;;;16.89;47.07;99998.53;5076820;28;1229;-54
2023/07/02 10:37:05;;;;;;;;;;;;;;;16.95;47.10;100002.84;5072432;28;868;-55
2023/07/02 10:39:30;;;;;;;;;;;;;;;16.88;47.22;100008.69;5076455;28;1182;-54
2023/07/02 10:42:08;;;;;;;;;;;;;;;16.92;47.11;100004.25;5077180;28;1055;-55
2023/07/02 10:44:34;;;;;;;;;;;;;;;16.86;47.23;100001.84;5076609;28;1067;-54
2023/07/02 10:46:59;;;;;;;;;;;;;;;16.91;46.93;100001.81;5076198;28;1057;-54
2023/07/02 10:49:31;;;;;;;;;;;;;;;16.82;47.24;99996.13;5076258;28;1962;-55
2023/07/02 10:52:00;;;;;;;;;;;;;;;16.80;47.51;99984.59;5076172;28;1042;-55
2023/07/02 10:54:26;;;;;;;;;;;;;;;16.79;47.42;99985.72;5076570;28;1120;-55
2023/07/02 10:56:56;;;;;;;;;;;;;;;16.89;47.25;99976.59;5075322;28;1182;-54
2023/07/02 10:59:25;;;;;;;;;;;;;;;16.81;47.52;99988.19;5076085;28;1118;-55
2023/07/02 11:01:50;;;;;;;;;;;;;;;16.82;47.24;99984.34;5076179;28;1051;-53
2023/07/02 11:04:16;;;;;;;;;;;;;;;16.89;47.27;99988.38;5076321;28;1184;-54
2023/07/02 11:06:41;;;;;;;;;;;;;;;16.88;46.93;99974.91;5076224;28;991;-52
2023/07/02 11:09:15;;;;;;;;;;;;;;;16.83;47.31;99977.72;5076334;28;1910;-52
2023/07/02 11:11:53;;;;;;;;;;;;;;;16.87;47.35;99973.25;5058090;28;1133;-52
2023/07/02 11:14:28;;;;;;;;;;;;;;;16.92;47.19;99986.97;5058524;28;1130;-54
2023/07/02 11:16:56;;;;;;;;;;;;;;;16.90;47.00;99978.19;5063179;28;1039;-51
2023/07/02 11:19:22;;;;;;;;;;;;;;;16.85;47.20;99975.50;5075832;28;1153;-54
2023/07/02 11:21:51;;;;;;;;;;;;;;;16.95;46.83;99969.88;5069128;28;1039;-52
2023/07/02 11:24:16;;;;;;;;;;;;;;;16.87;47.12;99979.59;5070370;28;1189;-54
2023/07/02 11:26:43;;;;;;;;;;;;;;;16.89;47.09;99982.06;5057795;28;1379;-51
2023/07/02 11:29:11;;;;;;;;;;;;;;;16.90;46.96;99976.28;5075966;28;1981;-51
2023/07/02 11:31:37;;;;;;;;;;;;;;;16.86;47.19;99971.66;5076725;28;1146;-55
2023/07/02 11:34:11;;;;;;;;;;;;;;;16.88;46.95;99961.19;5075754;28;1105;-53
2023/07/02 11:36:36;;;;;;;;;;;;;;;16.96;47.15;99976.19;5075363;28;880;-54
2023/07/02 11:39:02;;;;;;;;;;;;;;;16.95;46.90;99986.38;5075763;28;1035;-55
2023/07/02 11:41:36;;;;;;;;;;;;;;;16.88;46.93;99983.97;5076480;28;1155;-54
2023/07/02 11:44:01;;;;;;;;;;;;;;;16.81;47.11;99979.94;5075872;28;1068;-54
2023/07/02 11:46:27;;;;;;;;;;;;;;;17.06;47.52;99982.38;5075816;28;1106;-53
2023/07/02 11:48:52;;;;;;;;;;;;;;;17.36;48.72;99990.47;5075072;28;1344;-55
2023/07/02 11:51:18;;;;;;;;;;;;;;;17.13;48.45;99976.50;5076283;28;1986;-54
2023/07/02 11:53:44;;;;;;;;;;;;;;;17.14;48.09;99985.56;5075672;28;1075;-51
2023/07/02 11:56:09;;;;;;;;;;;;;;;17.08;47.70;99971.91;5075961;28;1170;-53
2023/07/02 11:58:35;;;;;;;;;;;;;;;17.09;47.37;99969.97;5075552;28;1031;-50
2023/07/02 12:01:00;;;;;;;;;;;;;;;17.10;47.01;99966.94;5075279;28;856;-54
2023/07/02 12:03:26;;;;;;;;;;;;;;;17.04;47.05;99973.63;5075926;28;1194;-55
2023/07/02 12:05:51;;;;;;;;;;;;;;;17.08;47.02;99963.69;5075897;28;1071;-53
2023/07/02 12:08:17;;;;;;;;;;;;;;;16.97;47.25;99966.84;5075221;28;1182;-55
2023/07/02 12:10:42;;;;;;;;;;;;;;;17.05;46.76;99979.91;5079398;28;1901;-54
2023/07/02 12:13:08;;;;;;;;;;;;;;;17.00;47.14;99967.09;5078460;28;1171;-53
2023/07/02 12:15:33;;;;;;;;;;;;;;;17.02;46.98;99983.25;5078894;28;1118;-54
2023/07/02 12:17:59;;;;;;;;;;;;;;;16.98;46.81;99980.28;5079172;28;1130;-55
2023/07/02 12:20:24;;;;;;;;;;;;;;;17.00;47.05;99989.06;5079303;28;1058;-55
2023/07/02 12:22:50;;;;;;;;;;;;;;;17.01;46.75;99979.72;5079042;28;1130;-56
2023/07/02 12:25:15;;;;;;;;;;;;;;;16.98;47.08;99969.28;5078707;28;1551;-56
2023/07/02 12:27:41;;;;;;;;;;;;;;;17.03;46.79;99968.44;5079514;28;1496;-52
2023/07/02 12:30:07;;;;;;;;;;;;;;;16.94;47.14;99976.50;5078355;28;1898;-56
2023/07/02 12:32:32;;;;;;;;;;;;;;;16.99;46.99;99976.44;5070809;28;1531;-56
2023/07/02 12:34:58;;;;;;;;;;;;;;;17.02;46.85;99975.84;5073973;28;1465;-54
2023/07/02 12:37:23;;;;;;;;;;;;;;;16.96;46.81;99971.53;5079036;28;1183;-52
2023/07/02 12:39:49;;;;;;;;;;;;;;;16.97;46.95;99975.09;5078947;28;1476;-52
2023/07/02 12:42:15;;;;;;;;;;;;;;;17.01;46.45;99974.22;5067558;28;1192;-55
2023/07/02 12:44:40;;;;;;;;;;;;;;;16.91;46.88;99966.94;5077058;28;1080;-55